KNE9145 VIJP-OEJN
Flight info
| Callsign | KNE9145 |
|---|---|
| Flight time | 5h 23m |
| Altitude | 38000 |
| Route | NIKOT1D NIKOT Q2 ADBUK Q4 AAE L639 RASKI N881 KIPOL L444 TOLDA M628 PEKEM DCT MEDPO DCT ITRUX/N0470F400 Y511 ASMIS T218 IMGUT M309 VEMEM |
| Aircraft | A339/H-SADE1E2E3GHIJ3J5M1P2RWXY/LB2D1 |
Departure
| Time | 2026-05-05 02:55 |
|---|---|
| Airport | Jaipur International Airport (VIJP) |
Arrival
| Time | 2026-05-05 08:19 |
|---|---|
| Airport | King Abdulaziz International Airport (OEJN) |
| Time | Latitude | Longitude | Altitude | Speed | Heading |
|---|---|---|---|---|---|
| 2026-05-05 02:45 | 26.82688 | 75.80673 | 1264 ft | 0 kts | 354° |
| 2026-05-05 02:46 | 26.82684 | 75.80673 | 1269 ft | 2 kts | 353° |
| 2026-05-05 02:46 | 26.82664 | 75.80675 | 1273 ft | 3 kts | 346° |
| 2026-05-05 02:47 | 26.82645 | 75.80681 | 1265 ft | 3 kts | 334° |
| 2026-05-05 02:47 | 26.82628 | 75.80689 | 1265 ft | 3 kts | 315° |
| 2026-05-05 02:47 | 26.82616 | 75.80701 | 1265 ft | 3 kts | 284° |
| 2026-05-05 02:47 | 26.82612 | 75.80712 | 1263 ft | 0 kts | 264° |
| 2026-05-05 02:50 | 26.82612 | 75.80711 | 1263 ft | 1 kts | 264° |
| 2026-05-05 02:50 | 26.82610 | 75.80692 | 1265 ft | 3 kts | 264° |
| 2026-05-05 02:50 | 26.82607 | 75.80652 | 1267 ft | 6 kts | 264° |
| 2026-05-05 02:50 | 26.82600 | 75.80584 | 1270 ft | 11 kts | 264° |
| 2026-05-05 02:51 | 26.82592 | 75.80497 | 1270 ft | 12 kts | 264° |
| 2026-05-05 02:51 | 26.82584 | 75.80406 | 1267 ft | 12 kts | 264° |
| 2026-05-05 02:51 | 26.82550 | 75.80339 | 1267 ft | 10 kts | 226° |
| 2026-05-05 02:51 | 26.82509 | 75.80278 | 1270 ft | 10 kts | 249° |
| 2026-05-05 02:52 | 26.82491 | 75.80192 | 1271 ft | 13 kts | 263° |
| 2026-05-05 02:52 | 26.82480 | 75.80086 | 1267 ft | 13 kts | 263° |
| 2026-05-05 02:52 | 26.82471 | 75.79989 | 1263 ft | 13 kts | 263° |
| 2026-05-05 02:52 | 26.82410 | 75.79930 | 1268 ft | 13 kts | 194° |
| 2026-05-05 02:53 | 26.82334 | 75.79940 | 1266 ft | 10 kts | 158° |
| 2026-05-05 02:53 | 26.82307 | 75.79998 | 1260 ft | 7 kts | 97° |
| 2026-05-05 02:53 | 26.82309 | 75.80010 | 1268 ft | 0 kts | 86° |
| 2026-05-05 02:54 | 26.82309 | 75.80016 | 1267 ft | 5 kts | 86° |
| 2026-05-05 02:55 | 26.82330 | 75.80352 | 1268 ft | 83 kts | 83° |
| 2026-05-05 02:55 | 26.82429 | 75.81297 | 1265 ft | 154 kts | 83° |
| 2026-05-05 02:55 | 26.82561 | 75.82581 | 1776 ft | 167 kts | 83° |
| 2026-05-05 02:55 | 26.82714 | 75.83877 | 2573 ft | 170 kts | 85° |
| 2026-05-05 02:56 | 26.82848 | 75.85235 | 3189 ft | 185 kts | 88° |
| 2026-05-05 02:56 | 26.82966 | 75.86742 | 3615 ft | 203 kts | 88° |
| 2026-05-05 02:56 | 26.83097 | 75.88398 | 3941 ft | 225 kts | 87° |
| 2026-05-05 02:56 | 26.83253 | 75.90239 | 4283 ft | 244 kts | 87° |
| 2026-05-05 02:57 | 26.83231 | 75.92195 | 4533 ft | 261 kts | 105° |
| 2026-05-05 02:57 | 26.82429 | 75.94037 | 4891 ft | 267 kts | 132° |
| 2026-05-05 02:57 | 26.80980 | 75.95274 | 5418 ft | 269 kts | 157° |
| 2026-05-05 02:57 | 26.79131 | 75.95674 | 5968 ft | 270 kts | 184° |
| 2026-05-05 02:58 | 26.77327 | 75.95115 | 6526 ft | 274 kts | 207° |
| 2026-05-05 02:58 | 26.75710 | 75.93936 | 6987 ft | 280 kts | 217° |
| 2026-05-05 02:58 | 26.74133 | 75.92657 | 7550 ft | 281 kts | 216° |
| 2026-05-05 02:58 | 26.72492 | 75.91468 | 8130 ft | 283 kts | 213° |
| 2026-05-05 02:59 | 26.70767 | 75.90363 | 8647 ft | 288 kts | 210° |
| 2026-05-05 02:59 | 26.69023 | 75.89334 | 9190 ft | 291 kts | 208° |
| 2026-05-05 02:59 | 26.67169 | 75.88282 | 9764 ft | 294 kts | 208° |
| 2026-05-05 02:59 | 26.65320 | 75.87252 | 10183 ft | 302 kts | 208° |
| 2026-05-05 03:00 | 26.63388 | 75.86164 | 10332 ft | 320 kts | 208° |
| 2026-05-05 03:00 | 26.61350 | 75.85022 | 10490 ft | 336 kts | 208° |
| 2026-05-05 03:00 | 26.59222 | 75.83823 | 10791 ft | 346 kts | 208° |
| 2026-05-05 03:00 | 26.57064 | 75.82611 | 11291 ft | 348 kts | 208° |
| 2026-05-05 03:01 | 26.54893 | 75.81389 | 11810 ft | 351 kts | 208° |
| 2026-05-05 03:01 | 26.52701 | 75.80156 | 12301 ft | 354 kts | 208° |
| 2026-05-05 03:01 | 26.50492 | 75.78913 | 12845 ft | 357 kts | 208° |
| 2026-05-05 03:01 | 26.48269 | 75.77659 | 13356 ft | 360 kts | 208° |
| 2026-05-05 03:02 | 26.46021 | 75.76395 | 13863 ft | 363 kts | 208° |
| 2026-05-05 03:02 | 26.43766 | 75.75128 | 14373 ft | 364 kts | 208° |
| 2026-05-05 03:02 | 26.41493 | 75.73853 | 14835 ft | 367 kts | 208° |
| 2026-05-05 03:02 | 26.39211 | 75.72571 | 15325 ft | 368 kts | 208° |
| 2026-05-05 03:03 | 26.36915 | 75.71281 | 15818 ft | 370 kts | 208° |
| 2026-05-05 03:03 | 26.34609 | 75.69987 | 16290 ft | 373 kts | 208° |
| 2026-05-05 03:03 | 26.33074 | 75.69125 | 16603 ft | 374 kts | 208° |
| 2026-05-05 03:03 | 26.30740 | 75.67816 | 17066 ft | 376 kts | 208° |
| 2026-05-05 03:04 | 26.28395 | 75.66501 | 17506 ft | 379 kts | 208° |
| 2026-05-05 03:04 | 26.26037 | 75.65181 | 17997 ft | 381 kts | 209° |
| 2026-05-05 03:04 | 26.23659 | 75.63849 | 18416 ft | 383 kts | 209° |
| 2026-05-05 03:04 | 26.21278 | 75.62517 | 18848 ft | 384 kts | 209° |
| 2026-05-05 03:05 | 26.18889 | 75.61180 | 19276 ft | 385 kts | 209° |
| 2026-05-05 03:05 | 26.16489 | 75.59838 | 19710 ft | 387 kts | 210° |
| 2026-05-05 03:05 | 26.14079 | 75.58491 | 20132 ft | 388 kts | 210° |
| 2026-05-05 03:05 | 26.11660 | 75.57139 | 20588 ft | 389 kts | 210° |
| 2026-05-05 03:06 | 26.09233 | 75.55783 | 20993 ft | 392 kts | 210° |
| 2026-05-05 03:06 | 26.06792 | 75.54420 | 21411 ft | 394 kts | 210° |
| 2026-05-05 03:06 | 26.04342 | 75.53051 | 21828 ft | 396 kts | 210° |
| 2026-05-05 03:06 | 26.01869 | 75.51672 | 22234 ft | 398 kts | 210° |
| 2026-05-05 03:07 | 25.99389 | 75.50289 | 22673 ft | 400 kts | 210° |
| 2026-05-05 03:07 | 25.96894 | 75.48898 | 23101 ft | 403 kts | 210° |
| 2026-05-05 03:07 | 25.94390 | 75.47503 | 23549 ft | 403 kts | 210° |
| 2026-05-05 03:07 | 25.91865 | 75.46096 | 23846 ft | 408 kts | 211° |
| 2026-05-05 03:08 | 25.89326 | 75.44683 | 24223 ft | 409 kts | 211° |
| 2026-05-05 03:08 | 25.86703 | 75.43396 | 24558 ft | 415 kts | 205° |
| 2026-05-05 03:08 | 25.83981 | 75.42296 | 24894 ft | 418 kts | 205° |
| 2026-05-05 03:08 | 25.81212 | 75.41167 | 25218 ft | 420 kts | 205° |
| 2026-05-05 03:09 | 25.78499 | 75.40053 | 25539 ft | 422 kts | 205° |
| 2026-05-05 03:09 | 25.75738 | 75.38915 | 25859 ft | 425 kts | 205° |
| 2026-05-05 03:09 | 25.72957 | 75.37770 | 26190 ft | 427 kts | 205° |
| 2026-05-05 03:09 | 25.70125 | 75.36604 | 26514 ft | 430 kts | 205° |
| 2026-05-05 03:10 | 25.67318 | 75.35450 | 26826 ft | 432 kts | 205° |
| 2026-05-05 03:10 | 25.64531 | 75.34305 | 27141 ft | 434 kts | 205° |
| 2026-05-05 03:10 | 25.61685 | 75.33136 | 27444 ft | 437 kts | 205° |
| 2026-05-05 03:10 | 25.58831 | 75.31964 | 27755 ft | 439 kts | 206° |
| 2026-05-05 03:11 | 25.55955 | 75.30784 | 28059 ft | 441 kts | 206° |
| 2026-05-05 03:11 | 25.53070 | 75.29600 | 28346 ft | 444 kts | 206° |
| 2026-05-05 03:11 | 25.50168 | 75.28412 | 28620 ft | 446 kts | 206° |
| 2026-05-05 03:11 | 25.47244 | 75.27214 | 28831 ft | 450 kts | 206° |
| 2026-05-05 03:12 | 25.44302 | 75.26009 | 29136 ft | 451 kts | 206° |
| 2026-05-05 03:12 | 25.41350 | 75.24802 | 29387 ft | 454 kts | 206° |
| 2026-05-05 03:12 | 25.38386 | 75.23590 | 29657 ft | 456 kts | 206° |
| 2026-05-05 03:12 | 25.35404 | 75.22370 | 29941 ft | 458 kts | 206° |
| 2026-05-05 03:13 | 25.32407 | 75.21146 | 30179 ft | 460 kts | 206° |
| 2026-05-05 03:13 | 25.29398 | 75.19918 | 30412 ft | 462 kts | 206° |
| 2026-05-05 03:13 | 25.26374 | 75.18684 | 30651 ft | 464 kts | 206° |
| 2026-05-05 03:13 | 25.23343 | 75.17447 | 30897 ft | 466 kts | 206° |
| 2026-05-05 03:14 | 25.20291 | 75.16202 | 31135 ft | 468 kts | 206° |
| 2026-05-05 03:14 | 25.17225 | 75.14954 | 31306 ft | 471 kts | 206° |
| 2026-05-05 03:14 | 25.14143 | 75.13698 | 31535 ft | 473 kts | 206° |
| 2026-05-05 03:14 | 25.11051 | 75.12440 | 31768 ft | 475 kts | 206° |
| 2026-05-05 03:15 | 25.07945 | 75.11177 | 31977 ft | 477 kts | 207° |
| 2026-05-05 03:15 | 25.04826 | 75.09908 | 32202 ft | 479 kts | 207° |
| 2026-05-05 03:15 | 25.01696 | 75.08637 | 32396 ft | 480 kts | 207° |
| 2026-05-05 03:15 | 24.98555 | 75.07361 | 32574 ft | 482 kts | 207° |
| 2026-05-05 03:16 | 24.95403 | 75.06081 | 32712 ft | 484 kts | 207° |
| 2026-05-05 03:16 | 24.89054 | 75.03507 | 32941 ft | 487 kts | 207° |
| 2026-05-05 03:17 | 24.82681 | 75.00925 | 33162 ft | 489 kts | 207° |
| 2026-05-05 03:17 | 24.76278 | 74.98334 | 33340 ft | 491 kts | 207° |
| 2026-05-05 03:18 | 24.69858 | 74.95739 | 33525 ft | 492 kts | 207° |
| 2026-05-05 03:18 | 24.63435 | 74.93134 | 33716 ft | 490 kts | 209° |
| 2026-05-05 03:19 | 24.55247 | 74.86990 | 33993 ft | 465 kts | 233° |
| 2026-05-05 03:19 | 24.51375 | 74.81412 | 34171 ft | 457 kts | 240° |
| 2026-05-05 03:20 | 24.47669 | 74.75739 | 34367 ft | 457 kts | 240° |
| 2026-05-05 03:20 | 24.43943 | 74.70082 | 34551 ft | 457 kts | 240° |
| 2026-05-05 03:21 | 24.42085 | 74.67262 | 34655 ft | 457 kts | 240° |
| 2026-05-05 03:21 | 24.40225 | 74.64440 | 34745 ft | 456 kts | 240° |
| 2026-05-05 03:21 | 24.36508 | 74.58804 | 34929 ft | 456 kts | 240° |
| 2026-05-05 03:22 | 24.32792 | 74.53174 | 35115 ft | 455 kts | 240° |
| 2026-05-05 03:22 | 24.29078 | 74.47555 | 35309 ft | 455 kts | 240° |
| 2026-05-05 03:23 | 24.25369 | 74.41948 | 35513 ft | 454 kts | 240° |
| 2026-05-05 03:23 | 24.23515 | 74.39148 | 35620 ft | 454 kts | 240° |
| 2026-05-05 03:23 | 24.21662 | 74.36350 | 35693 ft | 454 kts | 240° |
| 2026-05-05 03:24 | 24.19805 | 74.33550 | 35796 ft | 454 kts | 240° |
| 2026-05-05 03:24 | 24.17954 | 74.30760 | 35911 ft | 453 kts | 240° |
| 2026-05-05 03:24 | 24.16104 | 74.27974 | 36032 ft | 452 kts | 240° |
| 2026-05-05 03:24 | 24.14256 | 74.25191 | 36136 ft | 452 kts | 240° |
| 2026-05-05 03:25 | 24.12410 | 74.22411 | 36244 ft | 452 kts | 240° |
| 2026-05-05 03:25 | 24.10559 | 74.19627 | 36342 ft | 452 kts | 240° |
| 2026-05-05 03:25 | 24.08711 | 74.16849 | 36452 ft | 451 kts | 240° |
| 2026-05-05 03:25 | 24.06861 | 74.14072 | 36547 ft | 451 kts | 240° |
| 2026-05-05 03:26 | 24.03171 | 74.08533 | 36806 ft | 450 kts | 240° |
| 2026-05-05 03:26 | 24.01334 | 74.05766 | 36925 ft | 450 kts | 240° |
| 2026-05-05 03:26 | 23.99506 | 74.02985 | 37048 ft | 449 kts | 240° |
| 2026-05-05 03:27 | 23.97687 | 74.00209 | 37149 ft | 449 kts | 240° |
| 2026-05-05 03:27 | 23.95870 | 73.97439 | 37265 ft | 449 kts | 240° |
| 2026-05-05 03:27 | 23.94045 | 73.94662 | 37389 ft | 449 kts | 240° |
| 2026-05-05 03:27 | 23.92220 | 73.91889 | 37500 ft | 449 kts | 240° |
| 2026-05-05 03:28 | 23.90396 | 73.89124 | 37663 ft | 448 kts | 240° |
| 2026-05-05 03:28 | 23.88578 | 73.86368 | 37818 ft | 447 kts | 240° |
| 2026-05-05 03:28 | 23.86758 | 73.83610 | 37929 ft | 447 kts | 240° |
| 2026-05-05 03:28 | 23.84939 | 73.80856 | 37943 ft | 447 kts | 240° |
| 2026-05-05 03:29 | 23.81304 | 73.75353 | 37952 ft | 447 kts | 240° |
| 2026-05-05 03:29 | 23.77663 | 73.69848 | 37953 ft | 447 kts | 240° |
| 2026-05-05 03:30 | 23.74025 | 73.64355 | 37927 ft | 447 kts | 239° |
| 2026-05-05 03:30 | 23.70376 | 73.58849 | 37941 ft | 448 kts | 239° |
| 2026-05-05 03:31 | 23.66721 | 73.53345 | 37941 ft | 448 kts | 239° |
| 2026-05-05 03:31 | 23.63063 | 73.47839 | 37934 ft | 448 kts | 239° |
| 2026-05-05 03:32 | 23.59406 | 73.42342 | 37928 ft | 448 kts | 239° |
| 2026-05-05 03:32 | 23.55750 | 73.36842 | 37912 ft | 448 kts | 240° |
| 2026-05-05 03:33 | 23.52132 | 73.31325 | 37916 ft | 447 kts | 240° |
| 2026-05-05 03:33 | 23.48515 | 73.25808 | 37907 ft | 448 kts | 239° |
| 2026-05-05 03:34 | 23.44887 | 73.20291 | 37884 ft | 448 kts | 239° |
| 2026-05-05 03:34 | 23.41248 | 73.14766 | 37885 ft | 449 kts | 239° |
| 2026-05-05 03:35 | 23.37597 | 73.09231 | 37887 ft | 450 kts | 239° |
| 2026-05-05 03:35 | 23.33942 | 73.03695 | 37881 ft | 451 kts | 239° |
| 2026-05-05 03:36 | 23.30283 | 72.98160 | 37885 ft | 451 kts | 239° |
| 2026-05-05 03:36 | 23.26622 | 72.92625 | 37864 ft | 451 kts | 239° |
| 2026-05-05 03:37 | 23.22951 | 72.87083 | 37865 ft | 451 kts | 239° |
| 2026-05-05 03:37 | 23.19277 | 72.81545 | 37877 ft | 452 kts | 238° |
| 2026-05-05 03:38 | 23.15601 | 72.76006 | 37880 ft | 452 kts | 238° |
| 2026-05-05 03:38 | 23.11922 | 72.70471 | 37886 ft | 452 kts | 238° |
| 2026-05-05 03:39 | 23.08554 | 72.64754 | 37873 ft | 446 kts | 247° |
| 2026-05-05 03:39 | 23.06391 | 72.58494 | 37872 ft | 442 kts | 258° |
| 2026-05-05 03:40 | 23.05344 | 72.51943 | 37874 ft | 440 kts | 264° |
| 2026-05-05 03:40 | 23.04435 | 72.45357 | 37871 ft | 441 kts | 263° |
| 2026-05-05 03:41 | 23.03507 | 72.38772 | 37867 ft | 442 kts | 263° |
| 2026-05-05 03:41 | 23.02576 | 72.32179 | 37863 ft | 442 kts | 263° |
| 2026-05-05 03:42 | 23.01802 | 72.26702 | 37855 ft | 442 kts | 263° |
| 2026-05-05 03:42 | 23.00709 | 72.18988 | 37847 ft | 442 kts | 263° |
| 2026-05-05 03:43 | 22.99923 | 72.13461 | 37851 ft | 443 kts | 263° |
| 2026-05-05 03:43 | 22.98981 | 72.06853 | 37853 ft | 443 kts | 263° |
| 2026-05-05 03:44 | 22.98043 | 72.00295 | 37853 ft | 443 kts | 263° |
| 2026-05-05 03:44 | 22.97095 | 71.93685 | 37855 ft | 443 kts | 263° |
| 2026-05-05 03:45 | 22.96137 | 71.87032 | 37848 ft | 444 kts | 263° |
| 2026-05-05 03:45 | 22.95182 | 71.80414 | 37850 ft | 444 kts | 263° |
| 2026-05-05 03:46 | 22.94224 | 71.73801 | 37854 ft | 444 kts | 263° |
| 2026-05-05 03:46 | 22.93261 | 71.67176 | 37857 ft | 444 kts | 263° |
| 2026-05-05 03:47 | 22.92296 | 71.60553 | 37857 ft | 445 kts | 263° |
| 2026-05-05 03:47 | 22.91328 | 71.53930 | 37845 ft | 445 kts | 263° |
| 2026-05-05 03:48 | 22.90357 | 71.47301 | 37851 ft | 445 kts | 263° |
| 2026-05-05 03:48 | 22.89381 | 71.40662 | 37854 ft | 446 kts | 263° |
| 2026-05-05 03:49 | 22.88403 | 71.34028 | 37856 ft | 446 kts | 263° |
| 2026-05-05 03:49 | 22.87421 | 71.27389 | 37857 ft | 446 kts | 263° |
| 2026-05-05 03:50 | 22.86436 | 71.20746 | 37856 ft | 446 kts | 263° |
| 2026-05-05 03:50 | 22.85455 | 71.14151 | 37860 ft | 446 kts | 263° |
| 2026-05-05 03:51 | 22.84466 | 71.07518 | 37859 ft | 446 kts | 263° |
| 2026-05-05 03:51 | 22.83472 | 71.00875 | 37862 ft | 446 kts | 263° |
| 2026-05-05 03:52 | 22.82477 | 70.94243 | 37861 ft | 446 kts | 263° |
| 2026-05-05 03:52 | 22.81479 | 70.87603 | 37857 ft | 446 kts | 263° |
| 2026-05-05 03:53 | 22.81032 | 70.80879 | 37856 ft | 444 kts | 272° |
| 2026-05-05 03:53 | 22.81422 | 70.74195 | 37853 ft | 444 kts | 275° |
| 2026-05-05 03:54 | 22.81852 | 70.67516 | 37855 ft | 445 kts | 275° |
| 2026-05-05 03:54 | 22.82272 | 70.60826 | 37857 ft | 445 kts | 275° |
| 2026-05-05 03:55 | 22.82692 | 70.54136 | 37859 ft | 445 kts | 275° |
| 2026-05-05 03:55 | 22.83110 | 70.47432 | 37867 ft | 446 kts | 275° |
| 2026-05-05 03:56 | 22.83522 | 70.40754 | 37855 ft | 442 kts | 275° |
| 2026-05-05 03:56 | 22.83933 | 70.34098 | 37854 ft | 443 kts | 275° |
| 2026-05-05 03:57 | 22.84344 | 70.27389 | 37854 ft | 443 kts | 275° |
| 2026-05-05 03:57 | 22.84749 | 70.20721 | 37854 ft | 443 kts | 275° |
| 2026-05-05 03:58 | 22.85152 | 70.14043 | 37857 ft | 445 kts | 275° |
| 2026-05-05 03:58 | 22.85551 | 70.07372 | 37851 ft | 446 kts | 275° |
| 2026-05-05 03:59 | 22.85951 | 70.00640 | 37854 ft | 444 kts | 275° |
| 2026-05-05 03:59 | 22.86345 | 69.93959 | 37854 ft | 444 kts | 275° |
| 2026-05-05 04:00 | 22.86737 | 69.87277 | 37859 ft | 444 kts | 275° |
| 2026-05-05 04:00 | 22.87126 | 69.80583 | 37860 ft | 446 kts | 275° |
| 2026-05-05 04:01 | 22.87514 | 69.73868 | 37857 ft | 446 kts | 275° |
| 2026-05-05 04:01 | 22.87907 | 69.67161 | 37858 ft | 446 kts | 275° |
| 2026-05-05 04:02 | 22.88346 | 69.60459 | 37856 ft | 445 kts | 275° |
| 2026-05-05 04:02 | 22.88784 | 69.53758 | 37856 ft | 445 kts | 275° |
| 2026-05-05 04:03 | 22.89214 | 69.47045 | 37846 ft | 446 kts | 275° |
| 2026-05-05 04:03 | 22.89639 | 69.40328 | 37852 ft | 447 kts | 275° |
| 2026-05-05 04:04 | 22.90065 | 69.33554 | 37854 ft | 447 kts | 275° |
| 2026-05-05 04:04 | 22.90486 | 69.26815 | 37855 ft | 448 kts | 275° |
| 2026-05-05 04:05 | 22.90904 | 69.20079 | 37854 ft | 448 kts | 275° |
| 2026-05-05 04:05 | 22.91321 | 69.13334 | 37847 ft | 449 kts | 275° |
| 2026-05-05 04:06 | 22.91735 | 69.06572 | 37845 ft | 449 kts | 275° |
| 2026-05-05 04:06 | 22.92146 | 68.99808 | 37848 ft | 450 kts | 275° |
| 2026-05-05 04:07 | 22.92554 | 68.93039 | 37850 ft | 450 kts | 275° |
| 2026-05-05 04:07 | 22.92956 | 68.86292 | 37846 ft | 445 kts | 275° |
| 2026-05-05 04:08 | 22.93357 | 68.79582 | 37842 ft | 448 kts | 275° |
| 2026-05-05 04:08 | 22.93755 | 68.72845 | 37843 ft | 447 kts | 275° |
| 2026-05-05 04:09 | 22.94150 | 68.66120 | 37843 ft | 447 kts | 275° |
| 2026-05-05 04:09 | 22.94542 | 68.59385 | 37843 ft | 447 kts | 275° |
| 2026-05-05 04:10 | 22.94931 | 68.52657 | 37842 ft | 447 kts | 275° |
| 2026-05-05 04:10 | 22.95318 | 68.45913 | 37837 ft | 448 kts | 275° |
| 2026-05-05 04:11 | 22.95703 | 68.39169 | 37840 ft | 448 kts | 274° |
| 2026-05-05 04:11 | 22.95781 | 68.32397 | 37843 ft | 449 kts | 271° |
| 2026-05-05 04:12 | 22.95787 | 68.25624 | 37839 ft | 449 kts | 271° |
| 2026-05-05 04:12 | 22.95796 | 68.18845 | 37838 ft | 449 kts | 271° |
| 2026-05-05 04:13 | 22.95798 | 68.12061 | 37841 ft | 450 kts | 271° |
| 2026-05-05 04:13 | 22.95797 | 68.05272 | 37842 ft | 450 kts | 271° |
| 2026-05-05 04:14 | 22.95792 | 67.98479 | 37844 ft | 450 kts | 271° |
| 2026-05-05 04:14 | 22.95784 | 67.91683 | 37843 ft | 450 kts | 271° |
| 2026-05-05 04:15 | 22.95777 | 67.84884 | 37846 ft | 450 kts | 271° |
| 2026-05-05 04:15 | 22.95795 | 67.78045 | 37848 ft | 450 kts | 271° |
| 2026-05-05 04:16 | 22.95814 | 67.71252 | 37850 ft | 450 kts | 271° |
| 2026-05-05 04:16 | 22.95825 | 67.65603 | 37848 ft | 450 kts | 271° |
| 2026-05-05 04:17 | 22.95835 | 67.57701 | 37847 ft | 450 kts | 271° |
| 2026-05-05 04:17 | 22.95840 | 67.52009 | 37842 ft | 451 kts | 271° |
| 2026-05-05 04:18 | 22.95842 | 67.45208 | 37839 ft | 451 kts | 271° |
| 2026-05-05 04:18 | 22.95842 | 67.38405 | 37845 ft | 451 kts | 271° |
| 2026-05-05 04:19 | 22.95839 | 67.31602 | 37846 ft | 451 kts | 271° |
| 2026-05-05 04:19 | 22.95834 | 67.24794 | 37846 ft | 451 kts | 271° |
| 2026-05-05 04:20 | 22.95825 | 67.17984 | 37843 ft | 451 kts | 271° |
| 2026-05-05 04:20 | 22.95813 | 67.11177 | 37847 ft | 452 kts | 271° |
| 2026-05-05 04:21 | 22.95799 | 67.04358 | 37855 ft | 451 kts | 271° |
| 2026-05-05 04:21 | 22.95780 | 66.97648 | 37850 ft | 446 kts | 271° |
| 2026-05-05 04:22 | 22.95793 | 66.90861 | 37847 ft | 448 kts | 271° |
| 2026-05-05 04:22 | 22.95848 | 66.84089 | 37846 ft | 450 kts | 271° |
| 2026-05-05 04:23 | 22.95893 | 66.77303 | 37849 ft | 449 kts | 271° |
| 2026-05-05 04:23 | 22.95930 | 66.70521 | 37849 ft | 450 kts | 271° |
| 2026-05-05 04:24 | 22.95962 | 66.63741 | 37845 ft | 450 kts | 271° |
| 2026-05-05 04:25 | 22.96006 | 66.53601 | 37838 ft | 450 kts | 271° |
| 2026-05-05 04:25 | 22.96032 | 66.46770 | 37832 ft | 450 kts | 271° |
| 2026-05-05 04:26 | 22.96055 | 66.39979 | 37845 ft | 450 kts | 271° |
| 2026-05-05 04:26 | 22.96075 | 66.33180 | 37845 ft | 450 kts | 271° |
| 2026-05-05 04:27 | 22.96092 | 66.26384 | 37860 ft | 450 kts | 271° |
| 2026-05-05 04:27 | 22.96106 | 66.19588 | 37846 ft | 450 kts | 271° |
| 2026-05-05 04:28 | 22.96117 | 66.12789 | 37856 ft | 451 kts | 271° |
| 2026-05-05 04:28 | 22.96126 | 66.05988 | 37838 ft | 451 kts | 271° |
| 2026-05-05 04:29 | 22.96131 | 65.99184 | 37831 ft | 451 kts | 271° |
| 2026-05-05 04:29 | 22.96133 | 65.92384 | 37828 ft | 451 kts | 271° |
| 2026-05-05 04:30 | 22.96133 | 65.85576 | 37837 ft | 451 kts | 271° |
| 2026-05-05 04:30 | 22.96130 | 65.78767 | 37848 ft | 451 kts | 271° |
| 2026-05-05 04:31 | 22.96124 | 65.71965 | 37851 ft | 451 kts | 271° |
| 2026-05-05 04:31 | 22.96115 | 65.65154 | 37827 ft | 452 kts | 271° |
| 2026-05-05 04:32 | 22.96103 | 65.58344 | 37855 ft | 451 kts | 271° |
| 2026-05-05 04:32 | 22.96088 | 65.51529 | 37849 ft | 452 kts | 271° |
| 2026-05-05 04:33 | 22.96070 | 65.44720 | 37835 ft | 452 kts | 271° |
| 2026-05-05 04:33 | 22.96049 | 65.37908 | 37844 ft | 451 kts | 271° |
| 2026-05-05 04:34 | 22.96026 | 65.31096 | 37855 ft | 452 kts | 271° |
| 2026-05-05 04:34 | 22.96000 | 65.24327 | 37847 ft | 452 kts | 271° |
| 2026-05-05 04:35 | 22.95969 | 65.17471 | 37839 ft | 452 kts | 271° |
| 2026-05-05 04:35 | 22.95936 | 65.10706 | 37838 ft | 450 kts | 271° |
| 2026-05-05 04:36 | 22.95902 | 65.03937 | 37841 ft | 449 kts | 271° |
| 2026-05-05 04:36 | 22.95864 | 64.97161 | 37843 ft | 449 kts | 271° |
| 2026-05-05 04:37 | 22.95824 | 64.90360 | 37849 ft | 451 kts | 271° |
| 2026-05-05 04:37 | 22.95820 | 64.83556 | 37845 ft | 450 kts | 274° |
| 2026-05-05 04:38 | 22.96467 | 64.76809 | 37843 ft | 450 kts | 278° |
| 2026-05-05 04:38 | 22.97196 | 64.70067 | 37841 ft | 450 kts | 277° |
| 2026-05-05 04:39 | 22.97916 | 64.63277 | 37840 ft | 450 kts | 277° |
| 2026-05-05 04:39 | 22.98629 | 64.56522 | 37851 ft | 450 kts | 277° |
| 2026-05-05 04:40 | 22.99334 | 64.49817 | 37867 ft | 450 kts | 277° |
| 2026-05-05 04:40 | 23.00046 | 64.43021 | 37869 ft | 450 kts | 277° |
| 2026-05-05 04:41 | 23.00746 | 64.36311 | 37851 ft | 450 kts | 277° |
| 2026-05-05 04:41 | 23.01449 | 64.29552 | 37845 ft | 451 kts | 277° |
| 2026-05-05 04:42 | 23.02148 | 64.22794 | 37845 ft | 451 kts | 277° |
| 2026-05-05 04:42 | 23.02845 | 64.16028 | 37848 ft | 451 kts | 277° |
| 2026-05-05 04:43 | 23.03539 | 64.09258 | 37857 ft | 451 kts | 277° |
| 2026-05-05 04:43 | 23.04231 | 64.02485 | 37850 ft | 451 kts | 277° |
| 2026-05-05 04:44 | 23.04920 | 63.95710 | 37860 ft | 452 kts | 277° |
| 2026-05-05 04:44 | 23.05607 | 63.88923 | 37856 ft | 452 kts | 277° |
| 2026-05-05 04:45 | 23.05894 | 63.82052 | 37850 ft | 453 kts | 271° |
| 2026-05-05 04:45 | 23.05962 | 63.75215 | 37862 ft | 453 kts | 272° |
| 2026-05-05 04:46 | 23.06044 | 63.68413 | 37842 ft | 454 kts | 272° |
| 2026-05-05 04:46 | 23.06120 | 63.61516 | 37844 ft | 454 kts | 271° |
| 2026-05-05 04:47 | 23.06191 | 63.54708 | 37848 ft | 454 kts | 271° |
| 2026-05-05 04:47 | 23.06259 | 63.47850 | 37852 ft | 454 kts | 271° |
| 2026-05-05 04:48 | 23.06325 | 63.40998 | 37863 ft | 454 kts | 271° |
| 2026-05-05 04:48 | 23.06387 | 63.34139 | 37859 ft | 454 kts | 271° |
| 2026-05-05 04:49 | 23.06446 | 63.27281 | 37854 ft | 454 kts | 271° |
| 2026-05-05 04:49 | 23.06503 | 63.20429 | 37859 ft | 454 kts | 271° |
| 2026-05-05 04:50 | 23.06556 | 63.13575 | 37864 ft | 454 kts | 271° |
| 2026-05-05 04:50 | 23.06607 | 63.06716 | 37848 ft | 454 kts | 271° |
| 2026-05-05 04:51 | 23.06654 | 62.99854 | 37843 ft | 455 kts | 271° |
| 2026-05-05 04:51 | 23.06699 | 62.92983 | 37860 ft | 455 kts | 271° |
| 2026-05-05 04:52 | 23.06741 | 62.86122 | 37853 ft | 455 kts | 271° |
| 2026-05-05 04:52 | 23.06780 | 62.79246 | 37849 ft | 455 kts | 271° |
| 2026-05-05 04:53 | 23.06816 | 62.72373 | 37855 ft | 456 kts | 271° |
| 2026-05-05 04:53 | 23.06848 | 62.65484 | 37856 ft | 456 kts | 271° |
| 2026-05-05 04:54 | 23.06878 | 62.58594 | 37849 ft | 456 kts | 271° |
| 2026-05-05 04:54 | 23.06905 | 62.51710 | 37840 ft | 455 kts | 271° |
| 2026-05-05 04:55 | 23.06928 | 62.44896 | 37855 ft | 450 kts | 271° |
| 2026-05-05 04:55 | 23.06949 | 62.38076 | 37839 ft | 452 kts | 271° |
| 2026-05-05 04:56 | 23.06967 | 62.31260 | 37846 ft | 451 kts | 271° |
| 2026-05-05 04:56 | 23.06982 | 62.24443 | 37843 ft | 451 kts | 271° |
| 2026-05-05 04:57 | 23.06995 | 62.17625 | 37848 ft | 452 kts | 271° |
| 2026-05-05 04:57 | 23.07004 | 62.10807 | 37847 ft | 452 kts | 271° |
| 2026-05-05 04:58 | 23.07010 | 62.03985 | 37843 ft | 451 kts | 271° |
| 2026-05-05 04:58 | 23.07012 | 61.98320 | 37843 ft | 451 kts | 271° |
| 2026-05-05 04:59 | 23.07013 | 61.91504 | 37836 ft | 452 kts | 270° |
| 2026-05-05 04:59 | 23.07011 | 61.84691 | 37840 ft | 451 kts | 270° |
| 2026-05-05 05:00 | 23.07007 | 61.77867 | 37824 ft | 451 kts | 270° |
| 2026-05-05 05:00 | 23.07001 | 61.71053 | 37847 ft | 452 kts | 270° |
| 2026-05-05 05:01 | 23.06987 | 61.64234 | 37854 ft | 451 kts | 270° |
| 2026-05-05 05:01 | 23.06971 | 61.57411 | 37850 ft | 452 kts | 270° |
| 2026-05-05 05:02 | 23.06949 | 61.50592 | 37832 ft | 451 kts | 270° |
| 2026-05-05 05:02 | 23.06353 | 61.43805 | 37847 ft | 452 kts | 262° |
| 2026-05-05 05:03 | 23.05445 | 61.37046 | 37846 ft | 453 kts | 263° |
| 2026-05-05 05:03 | 23.04557 | 61.30281 | 37845 ft | 453 kts | 263° |
| 2026-05-05 05:04 | 23.03662 | 61.23509 | 37845 ft | 453 kts | 263° |
| 2026-05-05 05:04 | 23.02765 | 61.16750 | 37839 ft | 453 kts | 263° |
| 2026-05-05 05:05 | 23.01863 | 61.09987 | 37836 ft | 453 kts | 263° |
| 2026-05-05 05:05 | 23.00959 | 61.03223 | 37839 ft | 452 kts | 263° |
| 2026-05-05 05:06 | 23.00053 | 60.96470 | 37834 ft | 452 kts | 263° |
| 2026-05-05 05:06 | 22.99144 | 60.89715 | 37834 ft | 452 kts | 262° |
| 2026-05-05 05:07 | 22.98236 | 60.82964 | 37833 ft | 452 kts | 262° |
| 2026-05-05 05:07 | 22.97325 | 60.76213 | 37837 ft | 452 kts | 262° |
| 2026-05-05 05:08 | 22.96412 | 60.69465 | 37830 ft | 452 kts | 262° |
| 2026-05-05 05:08 | 22.95495 | 60.62717 | 37834 ft | 452 kts | 262° |
| 2026-05-05 05:09 | 22.94581 | 60.56011 | 37824 ft | 452 kts | 262° |
| 2026-05-05 05:09 | 22.93659 | 60.49272 | 37825 ft | 452 kts | 262° |
| 2026-05-05 05:10 | 22.92735 | 60.42533 | 37829 ft | 452 kts | 262° |
| 2026-05-05 05:10 | 22.91808 | 60.35796 | 37830 ft | 451 kts | 262° |
| 2026-05-05 05:11 | 22.90879 | 60.29069 | 37825 ft | 451 kts | 262° |
| 2026-05-05 05:11 | 22.89947 | 60.22338 | 37821 ft | 451 kts | 262° |
| 2026-05-05 05:12 | 22.89009 | 60.15637 | 37811 ft | 448 kts | 262° |
| 2026-05-05 05:12 | 22.88067 | 60.08949 | 37823 ft | 449 kts | 262° |
| 2026-05-05 05:13 | 22.87124 | 60.02262 | 37816 ft | 449 kts | 262° |
| 2026-05-05 05:13 | 22.86178 | 59.95573 | 37814 ft | 449 kts | 262° |
| 2026-05-05 05:14 | 22.85229 | 59.88885 | 37811 ft | 449 kts | 262° |
| 2026-05-05 05:14 | 22.84290 | 59.82197 | 37812 ft | 448 kts | 262° |
| 2026-05-05 05:15 | 22.83365 | 59.75511 | 37810 ft | 448 kts | 262° |
| 2026-05-05 05:15 | 22.82435 | 59.68829 | 37810 ft | 448 kts | 262° |
| 2026-05-05 05:16 | 22.81499 | 59.62147 | 37810 ft | 448 kts | 262° |
| 2026-05-05 05:16 | 22.80562 | 59.55470 | 37815 ft | 448 kts | 262° |
| 2026-05-05 05:17 | 22.79621 | 59.48792 | 37816 ft | 448 kts | 262° |
| 2026-05-05 05:17 | 22.78677 | 59.42111 | 37830 ft | 448 kts | 262° |
| 2026-05-05 05:18 | 22.77730 | 59.35434 | 37838 ft | 448 kts | 262° |
| 2026-05-05 05:18 | 22.76776 | 59.28751 | 37829 ft | 449 kts | 262° |
| 2026-05-05 05:19 | 22.75818 | 59.22069 | 37836 ft | 449 kts | 262° |
| 2026-05-05 05:19 | 22.74857 | 59.15387 | 37839 ft | 449 kts | 262° |
| 2026-05-05 05:20 | 22.73895 | 59.08702 | 37843 ft | 449 kts | 261° |
| 2026-05-05 05:20 | 22.72929 | 59.02012 | 37852 ft | 450 kts | 262° |
| 2026-05-05 05:21 | 22.71959 | 58.95316 | 37849 ft | 450 kts | 261° |
| 2026-05-05 05:21 | 22.70986 | 58.88627 | 37852 ft | 450 kts | 261° |
| 2026-05-05 05:22 | 22.70008 | 58.81924 | 37852 ft | 450 kts | 261° |
| 2026-05-05 05:22 | 22.69030 | 58.75232 | 37854 ft | 450 kts | 261° |
| 2026-05-05 05:23 | 22.68048 | 58.68540 | 37853 ft | 450 kts | 261° |
| 2026-05-05 05:23 | 22.67589 | 58.61799 | 37849 ft | 450 kts | 271° |
| 2026-05-05 05:24 | 22.68379 | 58.55089 | 37850 ft | 451 kts | 282° |
| 2026-05-05 05:24 | 22.70081 | 58.48547 | 37845 ft | 451 kts | 285° |
| 2026-05-05 05:25 | 22.71786 | 58.42051 | 37845 ft | 451 kts | 284° |
| 2026-05-05 05:25 | 22.73492 | 58.35514 | 37849 ft | 452 kts | 284° |
| 2026-05-05 05:26 | 22.75200 | 58.28962 | 37853 ft | 452 kts | 284° |
| 2026-05-05 05:26 | 22.76917 | 58.22374 | 37855 ft | 449 kts | 284° |
| 2026-05-05 05:27 | 22.78595 | 58.15921 | 37862 ft | 448 kts | 284° |
| 2026-05-05 05:27 | 22.81127 | 58.06159 | 37860 ft | 449 kts | 284° |
| 2026-05-05 05:28 | 22.82812 | 57.99646 | 37861 ft | 449 kts | 284° |
| 2026-05-05 05:28 | 22.84494 | 57.93137 | 37854 ft | 449 kts | 284° |
| 2026-05-05 05:29 | 22.86174 | 57.86623 | 37857 ft | 449 kts | 284° |
| 2026-05-05 05:29 | 22.87863 | 57.80060 | 37873 ft | 449 kts | 284° |
| 2026-05-05 05:30 | 22.89525 | 57.73574 | 37874 ft | 449 kts | 284° |
| 2026-05-05 05:30 | 22.91164 | 57.66988 | 37879 ft | 448 kts | 283° |
| 2026-05-05 05:31 | 22.92779 | 57.60482 | 37878 ft | 447 kts | 283° |
| 2026-05-05 05:31 | 22.94400 | 57.53959 | 37896 ft | 449 kts | 283° |
| 2026-05-05 05:32 | 22.96017 | 57.47445 | 37897 ft | 447 kts | 283° |
| 2026-05-05 05:32 | 22.97633 | 57.40922 | 37899 ft | 447 kts | 283° |
| 2026-05-05 05:33 | 22.99233 | 57.34400 | 37895 ft | 447 kts | 282° |
| 2026-05-05 05:33 | 23.00191 | 57.27750 | 37900 ft | 446 kts | 273° |
| 2026-05-05 05:34 | 23.00380 | 57.21032 | 37898 ft | 445 kts | 271° |
| 2026-05-05 05:34 | 23.00549 | 57.14318 | 37890 ft | 446 kts | 271° |
| 2026-05-05 05:35 | 23.00718 | 57.07596 | 37876 ft | 445 kts | 271° |
| 2026-05-05 05:35 | 23.00880 | 57.00874 | 37872 ft | 446 kts | 271° |
| 2026-05-05 05:36 | 23.01040 | 56.94143 | 37885 ft | 446 kts | 271° |
| 2026-05-05 05:36 | 23.01201 | 56.87446 | 37876 ft | 443 kts | 271° |
| 2026-05-05 05:37 | 23.01358 | 56.80756 | 37859 ft | 444 kts | 271° |
| 2026-05-05 05:37 | 23.01512 | 56.74049 | 37857 ft | 444 kts | 271° |
| 2026-05-05 05:38 | 23.01664 | 56.67347 | 37855 ft | 444 kts | 271° |
| 2026-05-05 05:38 | 23.01813 | 56.60640 | 37844 ft | 444 kts | 271° |
| 2026-05-05 05:39 | 23.01959 | 56.53935 | 37844 ft | 444 kts | 270° |
| 2026-05-05 05:39 | 23.02102 | 56.47233 | 37840 ft | 444 kts | 270° |
| 2026-05-05 05:40 | 23.02218 | 56.41667 | 37836 ft | 444 kts | 270° |
| 2026-05-05 05:40 | 23.02356 | 56.34960 | 37840 ft | 444 kts | 270° |
| 2026-05-05 05:41 | 23.02490 | 56.28255 | 37839 ft | 444 kts | 270° |
| 2026-05-05 05:41 | 23.02615 | 56.21552 | 37842 ft | 444 kts | 270° |
| 2026-05-05 05:42 | 23.02738 | 56.14849 | 37834 ft | 444 kts | 270° |
| 2026-05-05 05:42 | 23.02858 | 56.08151 | 37840 ft | 444 kts | 270° |
| 2026-05-05 05:43 | 23.02976 | 56.01456 | 37833 ft | 444 kts | 270° |
| 2026-05-05 05:43 | 23.03091 | 55.94755 | 37833 ft | 444 kts | 270° |
| 2026-05-05 05:44 | 23.03203 | 55.88066 | 37846 ft | 443 kts | 270° |
| 2026-05-05 05:44 | 23.03314 | 55.81383 | 37837 ft | 442 kts | 270° |
| 2026-05-05 05:45 | 23.03423 | 55.74710 | 37836 ft | 442 kts | 270° |
| 2026-05-05 05:45 | 23.03528 | 55.68043 | 37834 ft | 442 kts | 270° |
| 2026-05-05 05:46 | 23.03631 | 55.61380 | 37830 ft | 441 kts | 270° |
| 2026-05-05 05:46 | 23.03730 | 55.54718 | 37830 ft | 441 kts | 270° |
| 2026-05-05 05:47 | 23.03829 | 55.48054 | 37827 ft | 441 kts | 270° |
| 2026-05-05 05:47 | 23.03926 | 55.41391 | 37828 ft | 442 kts | 270° |
| 2026-05-05 05:48 | 23.04020 | 55.34721 | 37826 ft | 442 kts | 270° |
| 2026-05-05 05:48 | 23.03637 | 55.28081 | 37825 ft | 441 kts | 262° |
| 2026-05-05 05:49 | 23.02428 | 55.21552 | 37816 ft | 442 kts | 258° |
| 2026-05-05 05:49 | 23.01134 | 55.14983 | 37817 ft | 442 kts | 258° |
| 2026-05-05 05:50 | 22.99855 | 55.08456 | 37821 ft | 442 kts | 258° |
| 2026-05-05 05:50 | 22.98570 | 55.01928 | 37818 ft | 443 kts | 258° |
| 2026-05-05 05:51 | 22.97279 | 54.95392 | 37821 ft | 443 kts | 258° |
| 2026-05-05 05:51 | 22.95986 | 54.88867 | 37823 ft | 443 kts | 258° |
| 2026-05-05 05:52 | 22.94690 | 54.82337 | 37821 ft | 443 kts | 258° |
| 2026-05-05 05:52 | 22.93392 | 54.75809 | 37816 ft | 442 kts | 258° |
| 2026-05-05 05:53 | 22.92091 | 54.69281 | 37817 ft | 443 kts | 258° |
| 2026-05-05 05:53 | 22.90787 | 54.62755 | 37816 ft | 443 kts | 258° |
| 2026-05-05 05:54 | 22.89479 | 54.56227 | 37821 ft | 443 kts | 258° |
| 2026-05-05 05:54 | 22.88169 | 54.49698 | 37822 ft | 443 kts | 258° |
| 2026-05-05 05:55 | 22.86855 | 54.43163 | 37815 ft | 443 kts | 257° |
| 2026-05-05 05:55 | 22.85538 | 54.36633 | 37817 ft | 443 kts | 257° |
| 2026-05-05 05:56 | 22.84218 | 54.30098 | 37819 ft | 444 kts | 257° |
| 2026-05-05 05:56 | 22.82896 | 54.23570 | 37821 ft | 444 kts | 257° |
| 2026-05-05 05:57 | 22.81570 | 54.17033 | 37817 ft | 444 kts | 257° |
| 2026-05-05 05:57 | 22.80242 | 54.10505 | 37817 ft | 444 kts | 257° |
| 2026-05-05 05:58 | 22.78911 | 54.03977 | 37816 ft | 444 kts | 257° |
| 2026-05-05 05:58 | 22.77582 | 53.97447 | 37816 ft | 444 kts | 258° |
| 2026-05-05 05:59 | 22.76311 | 53.90908 | 37813 ft | 444 kts | 258° |
| 2026-05-05 05:59 | 22.75044 | 53.84364 | 37819 ft | 444 kts | 258° |
| 2026-05-05 06:00 | 22.73767 | 53.77823 | 37823 ft | 444 kts | 258° |
| 2026-05-05 06:00 | 22.72486 | 53.71287 | 37826 ft | 443 kts | 258° |
| 2026-05-05 06:01 | 22.71202 | 53.64757 | 37819 ft | 443 kts | 258° |
| 2026-05-05 06:01 | 22.69915 | 53.58224 | 37821 ft | 443 kts | 258° |
| 2026-05-05 06:02 | 22.68618 | 53.51653 | 37820 ft | 443 kts | 258° |
| 2026-05-05 06:02 | 22.67326 | 53.45124 | 37827 ft | 443 kts | 258° |
| 2026-05-05 06:03 | 22.66042 | 53.38648 | 37813 ft | 440 kts | 258° |
| 2026-05-05 06:03 | 22.64754 | 53.32165 | 37818 ft | 440 kts | 257° |
| 2026-05-05 06:04 | 22.63463 | 53.25686 | 37815 ft | 440 kts | 257° |
| 2026-05-05 06:04 | 22.62171 | 53.19213 | 37814 ft | 440 kts | 257° |
| 2026-05-05 06:05 | 22.60876 | 53.12738 | 37817 ft | 440 kts | 257° |
| 2026-05-05 06:05 | 22.59578 | 53.06263 | 37815 ft | 441 kts | 257° |
| 2026-05-05 06:06 | 22.58276 | 52.99784 | 37821 ft | 440 kts | 257° |
| 2026-05-05 06:06 | 22.56974 | 52.93313 | 37829 ft | 440 kts | 257° |
| 2026-05-05 06:07 | 22.55678 | 52.86892 | 37825 ft | 440 kts | 257° |
| 2026-05-05 06:07 | 22.54370 | 52.80427 | 37822 ft | 440 kts | 257° |
| 2026-05-05 06:08 | 22.53061 | 52.73965 | 37824 ft | 440 kts | 257° |
| 2026-05-05 06:08 | 22.51750 | 52.67509 | 37827 ft | 440 kts | 257° |
| 2026-05-05 06:09 | 22.50426 | 52.61006 | 37824 ft | 439 kts | 257° |
| 2026-05-05 06:09 | 22.49110 | 52.54558 | 37824 ft | 439 kts | 257° |
| 2026-05-05 06:10 | 22.47791 | 52.48104 | 37819 ft | 439 kts | 257° |
| 2026-05-05 06:10 | 22.46478 | 52.41697 | 37821 ft | 440 kts | 257° |
| 2026-05-05 06:11 | 22.45153 | 52.35243 | 37818 ft | 440 kts | 257° |
| 2026-05-05 06:11 | 22.43824 | 52.28782 | 37827 ft | 440 kts | 257° |
| 2026-05-05 06:12 | 22.42495 | 52.22333 | 37830 ft | 440 kts | 257° |
| 2026-05-05 06:12 | 22.41291 | 52.15856 | 37826 ft | 440 kts | 262° |
| 2026-05-05 06:13 | 22.40979 | 52.09249 | 37825 ft | 442 kts | 270° |
| 2026-05-05 06:13 | 22.41497 | 52.02625 | 37818 ft | 443 kts | 274° |
| 2026-05-05 06:14 | 22.42074 | 51.95996 | 37821 ft | 443 kts | 273° |
| 2026-05-05 06:14 | 22.42644 | 51.89364 | 37824 ft | 443 kts | 273° |
| 2026-05-05 06:15 | 22.43214 | 51.82726 | 37828 ft | 444 kts | 273° |
| 2026-05-05 06:15 | 22.43782 | 51.76086 | 37819 ft | 444 kts | 273° |
| 2026-05-05 06:16 | 22.44347 | 51.69439 | 37819 ft | 444 kts | 273° |
| 2026-05-05 06:16 | 22.44908 | 51.62800 | 37826 ft | 441 kts | 273° |
| 2026-05-05 06:17 | 22.45463 | 51.56208 | 37820 ft | 441 kts | 273° |
| 2026-05-05 06:17 | 22.46016 | 51.49594 | 37829 ft | 442 kts | 273° |
| 2026-05-05 06:18 | 22.46566 | 51.42982 | 37826 ft | 442 kts | 273° |
| 2026-05-05 06:18 | 22.47022 | 51.37479 | 37829 ft | 442 kts | 273° |
| 2026-05-05 06:19 | 22.47572 | 51.30816 | 37828 ft | 442 kts | 273° |
| 2026-05-05 06:19 | 22.48112 | 51.24247 | 37828 ft | 442 kts | 273° |
| 2026-05-05 06:20 | 22.48656 | 51.17588 | 37827 ft | 442 kts | 273° |
| 2026-05-05 06:20 | 22.49193 | 51.10980 | 37826 ft | 441 kts | 273° |
| 2026-05-05 06:21 | 22.49727 | 51.04364 | 37826 ft | 441 kts | 273° |
| 2026-05-05 06:21 | 22.50259 | 50.97756 | 37826 ft | 441 kts | 273° |
| 2026-05-05 06:22 | 22.50789 | 50.91141 | 37836 ft | 441 kts | 272° |
| 2026-05-05 06:22 | 22.51314 | 50.84541 | 37835 ft | 441 kts | 272° |
| 2026-05-05 06:23 | 22.51837 | 50.77934 | 37817 ft | 441 kts | 272° |
| 2026-05-05 06:23 | 22.52358 | 50.71329 | 37817 ft | 441 kts | 272° |
| 2026-05-05 06:24 | 22.52875 | 50.64726 | 37819 ft | 441 kts | 272° |
| 2026-05-05 06:24 | 22.53387 | 50.58157 | 37830 ft | 441 kts | 272° |
| 2026-05-05 06:25 | 22.53903 | 50.51503 | 37828 ft | 441 kts | 272° |
| 2026-05-05 06:25 | 22.54413 | 50.44885 | 37822 ft | 442 kts | 272° |
| 2026-05-05 06:26 | 22.54921 | 50.38257 | 37825 ft | 442 kts | 272° |
| 2026-05-05 06:26 | 22.55427 | 50.31627 | 37816 ft | 443 kts | 272° |
| 2026-05-05 06:27 | 22.56181 | 50.21675 | 37830 ft | 443 kts | 272° |
| 2026-05-05 06:28 | 22.56681 | 50.15030 | 37821 ft | 444 kts | 272° |
| 2026-05-05 06:28 | 22.57179 | 50.08372 | 37824 ft | 444 kts | 272° |
| 2026-05-05 06:29 | 22.57675 | 50.01708 | 37826 ft | 444 kts | 272° |
| 2026-05-05 06:29 | 22.58169 | 49.95040 | 37816 ft | 445 kts | 272° |
| 2026-05-05 06:30 | 22.58660 | 49.88359 | 37819 ft | 445 kts | 272° |
| 2026-05-05 06:30 | 22.59149 | 49.81676 | 37830 ft | 446 kts | 272° |
| 2026-05-05 06:31 | 22.59635 | 49.74994 | 37837 ft | 446 kts | 272° |
| 2026-05-05 06:31 | 22.60119 | 49.68296 | 37820 ft | 447 kts | 272° |
| 2026-05-05 06:32 | 22.60601 | 49.61597 | 37829 ft | 447 kts | 272° |
| 2026-05-05 06:32 | 22.61080 | 49.54896 | 37840 ft | 446 kts | 272° |
| 2026-05-05 06:33 | 22.61556 | 49.48204 | 37825 ft | 446 kts | 272° |
| 2026-05-05 06:33 | 22.62028 | 49.41514 | 37826 ft | 446 kts | 272° |
| 2026-05-05 06:34 | 22.62498 | 49.34824 | 37825 ft | 445 kts | 272° |
| 2026-05-05 06:34 | 22.62965 | 49.28138 | 37830 ft | 445 kts | 272° |
| 2026-05-05 06:35 | 22.63428 | 49.21463 | 37838 ft | 445 kts | 272° |
| 2026-05-05 06:35 | 22.63889 | 49.14778 | 37833 ft | 445 kts | 272° |
| 2026-05-05 06:36 | 22.64346 | 49.08104 | 37838 ft | 445 kts | 272° |
| 2026-05-05 06:36 | 22.64801 | 49.01427 | 37830 ft | 445 kts | 272° |
| 2026-05-05 06:37 | 22.65253 | 48.94754 | 37852 ft | 444 kts | 271° |
| 2026-05-05 06:37 | 22.65700 | 48.88115 | 37835 ft | 441 kts | 271° |
| 2026-05-05 06:38 | 22.66143 | 48.81480 | 37840 ft | 442 kts | 271° |
| 2026-05-05 06:38 | 22.66584 | 48.74849 | 37836 ft | 442 kts | 271° |
| 2026-05-05 06:39 | 22.67023 | 48.68209 | 37832 ft | 442 kts | 271° |
| 2026-05-05 06:39 | 22.67461 | 48.61531 | 37836 ft | 442 kts | 271° |
| 2026-05-05 06:40 | 22.67893 | 48.54905 | 37828 ft | 441 kts | 271° |
| 2026-05-05 06:40 | 22.68323 | 48.48278 | 37822 ft | 441 kts | 271° |
| 2026-05-05 06:41 | 22.68749 | 48.41648 | 37818 ft | 441 kts | 271° |
| 2026-05-05 06:41 | 22.69173 | 48.35015 | 37828 ft | 442 kts | 271° |
| 2026-05-05 06:42 | 22.69596 | 48.28382 | 37860 ft | 441 kts | 271° |
| 2026-05-05 06:42 | 22.70014 | 48.21755 | 37838 ft | 440 kts | 271° |
| 2026-05-05 06:43 | 22.70429 | 48.15138 | 37836 ft | 440 kts | 271° |
| 2026-05-05 06:43 | 22.70841 | 48.08524 | 37834 ft | 440 kts | 271° |
| 2026-05-05 06:44 | 22.71250 | 48.01916 | 37836 ft | 440 kts | 271° |
| 2026-05-05 06:44 | 22.71657 | 47.95299 | 37838 ft | 440 kts | 271° |
| 2026-05-05 06:45 | 22.72061 | 47.88683 | 37837 ft | 440 kts | 271° |
| 2026-05-05 06:45 | 22.72462 | 47.82063 | 37844 ft | 440 kts | 271° |
| 2026-05-05 06:46 | 22.72860 | 47.75443 | 37845 ft | 441 kts | 271° |
| 2026-05-05 06:46 | 22.73257 | 47.68814 | 37849 ft | 441 kts | 271° |
| 2026-05-05 06:47 | 22.73651 | 47.62192 | 37863 ft | 440 kts | 271° |
| 2026-05-05 06:47 | 22.74041 | 47.55579 | 37863 ft | 440 kts | 271° |
| 2026-05-05 06:48 | 22.74427 | 47.48980 | 37867 ft | 439 kts | 271° |
| 2026-05-05 06:48 | 22.74811 | 47.42376 | 37868 ft | 439 kts | 271° |
| 2026-05-05 06:49 | 22.75192 | 47.35783 | 37867 ft | 439 kts | 271° |
| 2026-05-05 06:49 | 22.75573 | 47.29186 | 37876 ft | 439 kts | 271° |
| 2026-05-05 06:50 | 22.75950 | 47.22607 | 37876 ft | 439 kts | 270° |
| 2026-05-05 06:50 | 22.76331 | 47.16009 | 37880 ft | 439 kts | 271° |
| 2026-05-05 06:51 | 22.76852 | 47.09417 | 37881 ft | 439 kts | 272° |
| 2026-05-05 06:51 | 22.77398 | 47.02830 | 37900 ft | 438 kts | 272° |
| 2026-05-05 06:52 | 22.77922 | 46.96255 | 37896 ft | 438 kts | 272° |
| 2026-05-05 06:52 | 22.78437 | 46.89683 | 37894 ft | 437 kts | 272° |
| 2026-05-05 06:53 | 22.78949 | 46.83119 | 37894 ft | 437 kts | 272° |
| 2026-05-05 06:53 | 22.79458 | 46.76543 | 37896 ft | 437 kts | 271° |
| 2026-05-05 06:54 | 22.79964 | 46.69994 | 37900 ft | 437 kts | 271° |
| 2026-05-05 06:54 | 22.80385 | 46.64500 | 37901 ft | 437 kts | 271° |
| 2026-05-05 06:55 | 22.80886 | 46.57944 | 37901 ft | 437 kts | 271° |
| 2026-05-05 06:55 | 22.81384 | 46.51383 | 37901 ft | 437 kts | 271° |
| 2026-05-05 06:56 | 22.81880 | 46.44818 | 37926 ft | 436 kts | 271° |
| 2026-05-05 06:56 | 22.82373 | 46.38271 | 37917 ft | 436 kts | 271° |
| 2026-05-05 06:57 | 22.82859 | 46.31689 | 37902 ft | 435 kts | 271° |
| 2026-05-05 06:57 | 22.83343 | 46.25149 | 37909 ft | 435 kts | 271° |
| 2026-05-05 06:58 | 22.83824 | 46.18609 | 37906 ft | 435 kts | 271° |
| 2026-05-05 06:58 | 22.84301 | 46.12078 | 37897 ft | 435 kts | 271° |
| 2026-05-05 06:59 | 22.84776 | 46.05536 | 37896 ft | 436 kts | 271° |
| 2026-05-05 06:59 | 22.85249 | 45.98981 | 37896 ft | 436 kts | 271° |
| 2026-05-05 07:00 | 22.85720 | 45.92432 | 37906 ft | 436 kts | 271° |
| 2026-05-05 07:00 | 22.86187 | 45.85912 | 37898 ft | 433 kts | 271° |
| 2026-05-05 07:01 | 22.86648 | 45.79399 | 37895 ft | 433 kts | 271° |
| 2026-05-05 07:01 | 22.87108 | 45.72871 | 37890 ft | 435 kts | 271° |
| 2026-05-05 07:02 | 22.87567 | 45.66340 | 37888 ft | 435 kts | 271° |
| 2026-05-05 07:02 | 22.88023 | 45.59802 | 37886 ft | 434 kts | 271° |
| 2026-05-05 07:03 | 22.88476 | 45.53269 | 37877 ft | 435 kts | 271° |
| 2026-05-05 07:03 | 22.88927 | 45.46732 | 37884 ft | 435 kts | 271° |
| 2026-05-05 07:04 | 22.89374 | 45.40196 | 37885 ft | 435 kts | 271° |
| 2026-05-05 07:04 | 22.89821 | 45.33657 | 37895 ft | 435 kts | 270° |
| 2026-05-05 07:05 | 22.90263 | 45.27120 | 37889 ft | 434 kts | 270° |
| 2026-05-05 07:05 | 22.90701 | 45.20596 | 37892 ft | 433 kts | 270° |
| 2026-05-05 07:06 | 22.91137 | 45.14082 | 37889 ft | 433 kts | 270° |
| 2026-05-05 07:06 | 22.91571 | 45.07563 | 37891 ft | 433 kts | 270° |
| 2026-05-05 07:07 | 22.92000 | 45.01046 | 37894 ft | 433 kts | 270° |
| 2026-05-05 07:07 | 22.92430 | 44.94479 | 37895 ft | 434 kts | 270° |
| 2026-05-05 07:08 | 22.92854 | 44.87956 | 37894 ft | 434 kts | 270° |
| 2026-05-05 07:08 | 22.93272 | 44.81475 | 37902 ft | 434 kts | 270° |
| 2026-05-05 07:09 | 22.93692 | 44.74944 | 37901 ft | 434 kts | 270° |
| 2026-05-05 07:09 | 22.94102 | 44.68410 | 37909 ft | 434 kts | 269° |
| 2026-05-05 07:10 | 22.93978 | 44.61901 | 37907 ft | 431 kts | 264° |
| 2026-05-05 07:10 | 22.93685 | 44.55370 | 37918 ft | 431 kts | 264° |
| 2026-05-05 07:11 | 22.93406 | 44.48882 | 37916 ft | 430 kts | 264° |
| 2026-05-05 07:11 | 22.93124 | 44.42436 | 37915 ft | 430 kts | 264° |
| 2026-05-05 07:12 | 22.92838 | 44.35980 | 37915 ft | 427 kts | 264° |
| 2026-05-05 07:12 | 22.92546 | 44.29488 | 37916 ft | 428 kts | 264° |
| 2026-05-05 07:13 | 22.92254 | 44.23048 | 37918 ft | 428 kts | 264° |
| 2026-05-05 07:13 | 22.91961 | 44.16611 | 37922 ft | 427 kts | 264° |
| 2026-05-05 07:14 | 22.91663 | 44.10178 | 37927 ft | 427 kts | 264° |
| 2026-05-05 07:14 | 22.91365 | 44.03752 | 37926 ft | 427 kts | 264° |
| 2026-05-05 07:15 | 22.91064 | 43.97327 | 37939 ft | 426 kts | 263° |
| 2026-05-05 07:15 | 22.90760 | 43.90913 | 37921 ft | 426 kts | 263° |
| 2026-05-05 07:16 | 22.90454 | 43.84501 | 37929 ft | 426 kts | 263° |
| 2026-05-05 07:16 | 22.90145 | 43.78084 | 37947 ft | 426 kts | 263° |
| 2026-05-05 07:17 | 22.89834 | 43.71671 | 37951 ft | 426 kts | 263° |
| 2026-05-05 07:17 | 22.89520 | 43.65256 | 37957 ft | 426 kts | 263° |
| 2026-05-05 07:18 | 22.89204 | 43.58843 | 37973 ft | 425 kts | 263° |
| 2026-05-05 07:18 | 22.88888 | 43.52480 | 37969 ft | 425 kts | 263° |
| 2026-05-05 07:19 | 22.88565 | 43.46041 | 37976 ft | 425 kts | 263° |
| 2026-05-05 07:19 | 22.88243 | 43.39651 | 37983 ft | 424 kts | 263° |
| 2026-05-05 07:20 | 22.87917 | 43.33269 | 37984 ft | 424 kts | 263° |
| 2026-05-05 07:20 | 22.87591 | 43.26933 | 37977 ft | 424 kts | 263° |
| 2026-05-05 07:21 | 22.87259 | 43.20510 | 37990 ft | 424 kts | 263° |
| 2026-05-05 07:21 | 22.86926 | 43.14123 | 37994 ft | 424 kts | 263° |
| 2026-05-05 07:22 | 22.86591 | 43.07739 | 37989 ft | 424 kts | 263° |
| 2026-05-05 07:22 | 22.86253 | 43.01356 | 38015 ft | 424 kts | 263° |
| 2026-05-05 07:23 | 22.85915 | 42.95005 | 37998 ft | 421 kts | 263° |
| 2026-05-05 07:23 | 22.85574 | 42.88675 | 38002 ft | 421 kts | 263° |
| 2026-05-05 07:24 | 22.85231 | 42.82341 | 38004 ft | 421 kts | 263° |
| 2026-05-05 07:24 | 22.84885 | 42.76001 | 38010 ft | 421 kts | 263° |
| 2026-05-05 07:25 | 22.84537 | 42.69668 | 37993 ft | 422 kts | 263° |
| 2026-05-05 07:25 | 22.84182 | 42.63278 | 38015 ft | 426 kts | 263° |
| 2026-05-05 07:26 | 22.83828 | 42.56889 | 38023 ft | 422 kts | 263° |
| 2026-05-05 07:26 | 22.83472 | 42.50543 | 38027 ft | 422 kts | 263° |
| 2026-05-05 07:27 | 22.83112 | 42.44193 | 38033 ft | 422 kts | 263° |
| 2026-05-05 07:27 | 22.82752 | 42.37852 | 38031 ft | 419 kts | 263° |
| 2026-05-05 07:28 | 22.82392 | 42.31571 | 38039 ft | 418 kts | 263° |
| 2026-05-05 07:28 | 22.82028 | 42.25273 | 38044 ft | 418 kts | 263° |
| 2026-05-05 07:29 | 22.81662 | 42.18979 | 38060 ft | 418 kts | 263° |
| 2026-05-05 07:29 | 22.81297 | 42.12724 | 38050 ft | 415 kts | 263° |
| 2026-05-05 07:30 | 22.80927 | 42.06469 | 38042 ft | 417 kts | 263° |
| 2026-05-05 07:30 | 22.80365 | 41.97009 | 38060 ft | 419 kts | 263° |
| 2026-05-05 07:31 | 22.80053 | 41.91750 | 38062 ft | 417 kts | 263° |
| 2026-05-05 07:31 | 22.79523 | 41.85503 | 38061 ft | 416 kts | 261° |
| 2026-05-05 07:32 | 22.78931 | 41.79260 | 38056 ft | 416 kts | 261° |
| 2026-05-05 07:32 | 22.78343 | 41.73035 | 38056 ft | 414 kts | 261° |
| 2026-05-05 07:33 | 22.77752 | 41.66866 | 38061 ft | 414 kts | 261° |
| 2026-05-05 07:33 | 22.77153 | 41.60656 | 38062 ft | 414 kts | 261° |
| 2026-05-05 07:34 | 22.76552 | 41.54446 | 38064 ft | 414 kts | 261° |
| 2026-05-05 07:34 | 22.75950 | 41.48237 | 38042 ft | 411 kts | 261° |
| 2026-05-05 07:35 | 22.75342 | 41.42036 | 38060 ft | 416 kts | 261° |
| 2026-05-05 07:35 | 22.74722 | 41.35813 | 38059 ft | 415 kts | 259° |
| 2026-05-05 07:36 | 22.73556 | 41.29737 | 38054 ft | 410 kts | 252° |
| 2026-05-05 07:36 | 22.71637 | 41.23939 | 38052 ft | 409 kts | 247° |
| 2026-05-05 07:37 | 22.69528 | 41.18206 | 38057 ft | 410 kts | 247° |
| 2026-05-05 07:37 | 22.67445 | 41.12504 | 38079 ft | 410 kts | 248° |
| 2026-05-05 07:38 | 22.65341 | 41.06765 | 38061 ft | 407 kts | 247° |
| 2026-05-05 07:38 | 22.63240 | 41.01048 | 38055 ft | 411 kts | 247° |
| 2026-05-05 07:39 | 22.61127 | 40.95306 | 38059 ft | 410 kts | 247° |
| 2026-05-05 07:39 | 22.59015 | 40.89575 | 38061 ft | 410 kts | 247° |
| 2026-05-05 07:40 | 22.56912 | 40.83875 | 38035 ft | 407 kts | 247° |
| 2026-05-05 07:40 | 22.54817 | 40.78205 | 38037 ft | 405 kts | 247° |
| 2026-05-05 07:41 | 22.52715 | 40.72521 | 38059 ft | 409 kts | 247° |
| 2026-05-05 07:41 | 22.50599 | 40.66804 | 38061 ft | 411 kts | 247° |
| 2026-05-05 07:42 | 22.48467 | 40.61053 | 38063 ft | 412 kts | 247° |
| 2026-05-05 07:42 | 22.46340 | 40.55324 | 37534 ft | 410 kts | 247° |
| 2026-05-05 07:43 | 22.45256 | 40.52408 | 36571 ft | 415 kts | 248° |
| 2026-05-05 07:43 | 22.44167 | 40.49483 | 35292 ft | 425 kts | 248° |
| 2026-05-05 07:43 | 22.43054 | 40.46495 | 34021 ft | 431 kts | 248° |
| 2026-05-05 07:43 | 22.41934 | 40.43487 | 32606 ft | 433 kts | 248° |
| 2026-05-05 07:44 | 22.40807 | 40.40462 | 31182 ft | 436 kts | 248° |
| 2026-05-05 07:44 | 22.39668 | 40.37405 | 29697 ft | 440 kts | 248° |
| 2026-05-05 07:44 | 22.38525 | 40.34340 | 28418 ft | 439 kts | 248° |
| 2026-05-05 07:44 | 22.37388 | 40.31294 | 27447 ft | 436 kts | 248° |
| 2026-05-05 07:45 | 22.36245 | 40.28233 | 26532 ft | 428 kts | 248° |
| 2026-05-05 07:45 | 22.35136 | 40.25266 | 25278 ft | 426 kts | 248° |
| 2026-05-05 07:45 | 22.34033 | 40.22317 | 24466 ft | 421 kts | 248° |
| 2026-05-05 07:45 | 22.32944 | 40.19406 | 23863 ft | 414 kts | 248° |
| 2026-05-05 07:46 | 22.31865 | 40.16526 | 23095 ft | 412 kts | 248° |
| 2026-05-05 07:46 | 22.30800 | 40.13678 | 22409 ft | 406 kts | 248° |
| 2026-05-05 07:46 | 22.29751 | 40.10877 | 21678 ft | 400 kts | 248° |
| 2026-05-05 07:46 | 22.28712 | 40.08103 | 20985 ft | 395 kts | 247° |
| 2026-05-05 07:47 | 22.27686 | 40.05369 | 20283 ft | 391 kts | 247° |
| 2026-05-05 07:47 | 22.26617 | 40.02683 | 19576 ft | 386 kts | 243° |
| 2026-05-05 07:47 | 22.25302 | 40.00171 | 18896 ft | 381 kts | 236° |
| 2026-05-05 07:47 | 22.23837 | 39.97805 | 18242 ft | 377 kts | 235° |
| 2026-05-05 07:48 | 22.22425 | 39.95513 | 17959 ft | 354 kts | 235° |
| 2026-05-05 07:48 | 22.21117 | 39.93375 | 17714 ft | 330 kts | 235° |
| 2026-05-05 07:48 | 22.19891 | 39.91368 | 17333 ft | 313 kts | 235° |
| 2026-05-05 07:48 | 22.18718 | 39.89447 | 17092 ft | 302 kts | 235° |
| 2026-05-05 07:49 | 22.17551 | 39.87541 | 17022 ft | 306 kts | 235° |
| 2026-05-05 07:49 | 22.16380 | 39.85631 | 16955 ft | 306 kts | 235° |
| 2026-05-05 07:49 | 22.15210 | 39.83720 | 16808 ft | 305 kts | 235° |
| 2026-05-05 07:49 | 22.14042 | 39.81811 | 16703 ft | 305 kts | 234° |
| 2026-05-05 07:50 | 22.12872 | 39.79903 | 16606 ft | 304 kts | 235° |
| 2026-05-05 07:50 | 22.11708 | 39.78003 | 16516 ft | 303 kts | 235° |
| 2026-05-05 07:50 | 22.10546 | 39.76104 | 16405 ft | 303 kts | 234° |
| 2026-05-05 07:50 | 22.09384 | 39.74205 | 16269 ft | 303 kts | 234° |
| 2026-05-05 07:51 | 22.08226 | 39.72315 | 16180 ft | 302 kts | 234° |
| 2026-05-05 07:51 | 22.07069 | 39.70427 | 16081 ft | 302 kts | 234° |
| 2026-05-05 07:51 | 22.05911 | 39.68537 | 15981 ft | 302 kts | 234° |
| 2026-05-05 07:51 | 22.04757 | 39.66656 | 15864 ft | 300 kts | 234° |
| 2026-05-05 07:52 | 22.03603 | 39.64778 | 15755 ft | 301 kts | 234° |
| 2026-05-05 07:52 | 22.02449 | 39.62900 | 15658 ft | 300 kts | 234° |
| 2026-05-05 07:52 | 22.01297 | 39.61024 | 15549 ft | 299 kts | 234° |
| 2026-05-05 07:52 | 22.00147 | 39.59152 | 15464 ft | 299 kts | 234° |
| 2026-05-05 07:53 | 21.98997 | 39.57284 | 15345 ft | 300 kts | 234° |
| 2026-05-05 07:53 | 21.97843 | 39.55407 | 15225 ft | 299 kts | 234° |
| 2026-05-05 07:53 | 21.96699 | 39.53547 | 15137 ft | 298 kts | 234° |
| 2026-05-05 07:53 | 21.95556 | 39.51687 | 15041 ft | 298 kts | 234° |
| 2026-05-05 07:54 | 21.94420 | 39.49820 | 14956 ft | 297 kts | 237° |
| 2026-05-05 07:54 | 21.93467 | 39.47836 | 14795 ft | 299 kts | 243° |
| 2026-05-05 07:54 | 21.92587 | 39.45815 | 14649 ft | 297 kts | 242° |
| 2026-05-05 07:54 | 21.91706 | 39.43810 | 14573 ft | 296 kts | 242° |
| 2026-05-05 07:55 | 21.90818 | 39.41807 | 14444 ft | 297 kts | 242° |
| 2026-05-05 07:55 | 21.89916 | 39.39780 | 14293 ft | 296 kts | 242° |
| 2026-05-05 07:55 | 21.89025 | 39.37783 | 14103 ft | 295 kts | 242° |
| 2026-05-05 07:55 | 21.88135 | 39.35790 | 13938 ft | 295 kts | 242° |
| 2026-05-05 07:56 | 21.87247 | 39.33801 | 13779 ft | 294 kts | 242° |
| 2026-05-05 07:56 | 21.86364 | 39.31823 | 13605 ft | 293 kts | 242° |
| 2026-05-05 07:56 | 21.85480 | 39.29845 | 13404 ft | 293 kts | 242° |
| 2026-05-05 07:56 | 21.84600 | 39.27873 | 13088 ft | 291 kts | 242° |
| 2026-05-05 07:57 | 21.83733 | 39.25932 | 12981 ft | 281 kts | 242° |
| 2026-05-05 07:57 | 21.82919 | 39.24107 | 12967 ft | 260 kts | 242° |
| 2026-05-05 07:57 | 21.82158 | 39.22430 | 12972 ft | 239 kts | 239° |
| 2026-05-05 07:57 | 21.81238 | 39.20927 | 12908 ft | 243 kts | 230° |
| 2026-05-05 07:58 | 21.80124 | 39.19580 | 12781 ft | 239 kts | 226° |
| 2026-05-05 07:58 | 21.79018 | 39.18253 | 12498 ft | 235 kts | 227° |
| 2026-05-05 07:58 | 21.77940 | 39.16938 | 11997 ft | 236 kts | 227° |
| 2026-05-05 07:58 | 21.76854 | 39.15606 | 11576 ft | 235 kts | 228° |
| 2026-05-05 07:59 | 21.75769 | 39.14272 | 11030 ft | 238 kts | 229° |
| 2026-05-05 07:59 | 21.74690 | 39.12941 | 10611 ft | 237 kts | 229° |
| 2026-05-05 07:59 | 21.73595 | 39.11593 | 10152 ft | 240 kts | 229° |
| 2026-05-05 07:59 | 21.72493 | 39.10236 | 10017 ft | 239 kts | 230° |
| 2026-05-05 08:00 | 21.71394 | 39.08882 | 9971 ft | 239 kts | 229° |
| 2026-05-05 08:00 | 21.70289 | 39.07516 | 9967 ft | 241 kts | 229° |
| 2026-05-05 08:00 | 21.69195 | 39.06171 | 9963 ft | 238 kts | 229° |
| 2026-05-05 08:00 | 21.68106 | 39.04833 | 9965 ft | 243 kts | 229° |
| 2026-05-05 08:01 | 21.66839 | 39.03603 | 9968 ft | 244 kts | 210° |
| 2026-05-05 08:01 | 21.65217 | 39.03126 | 9972 ft | 247 kts | 181° |
| 2026-05-05 08:01 | 21.63527 | 39.03500 | 9970 ft | 250 kts | 160° |
| 2026-05-05 08:01 | 21.61935 | 39.04243 | 9961 ft | 250 kts | 156° |
| 2026-05-05 08:02 | 21.60355 | 39.05024 | 9965 ft | 250 kts | 158° |
| 2026-05-05 08:02 | 21.58754 | 39.05762 | 9963 ft | 250 kts | 159° |
| 2026-05-05 08:02 | 21.57141 | 39.06444 | 9965 ft | 248 kts | 161° |
| 2026-05-05 08:02 | 21.55521 | 39.07091 | 9965 ft | 249 kts | 162° |
| 2026-05-05 08:03 | 21.53896 | 39.07731 | 9968 ft | 250 kts | 161° |
| 2026-05-05 08:03 | 21.52259 | 39.08367 | 9963 ft | 250 kts | 162° |
| 2026-05-05 08:03 | 21.50630 | 39.08998 | 9964 ft | 249 kts | 161° |
| 2026-05-05 08:03 | 21.48997 | 39.09640 | 9963 ft | 250 kts | 161° |
| 2026-05-05 08:04 | 21.47367 | 39.10281 | 9962 ft | 249 kts | 162° |
| 2026-05-05 08:04 | 21.45742 | 39.10919 | 9967 ft | 248 kts | 161° |
| 2026-05-05 08:04 | 21.44121 | 39.11558 | 9969 ft | 249 kts | 161° |
| 2026-05-05 08:04 | 21.43048 | 39.11983 | 9966 ft | 249 kts | 161° |
| 2026-05-05 08:05 | 21.40866 | 39.12846 | 9873 ft | 251 kts | 161° |
| 2026-05-05 08:05 | 21.39787 | 39.13273 | 9772 ft | 249 kts | 161° |
| 2026-05-05 08:05 | 21.38162 | 39.13913 | 9426 ft | 249 kts | 161° |
| 2026-05-05 08:05 | 21.36535 | 39.14556 | 8966 ft | 250 kts | 161° |
| 2026-05-05 08:06 | 21.34899 | 39.15201 | 8511 ft | 251 kts | 161° |
| 2026-05-05 08:06 | 21.33261 | 39.15848 | 8098 ft | 251 kts | 160° |
| 2026-05-05 08:06 | 21.31623 | 39.16493 | 7682 ft | 252 kts | 161° |
| 2026-05-05 08:06 | 21.29972 | 39.17141 | 7247 ft | 253 kts | 160° |
| 2026-05-05 08:07 | 21.28320 | 39.17796 | 6874 ft | 253 kts | 160° |
| 2026-05-05 08:07 | 21.26668 | 39.18448 | 6503 ft | 253 kts | 160° |
| 2026-05-05 08:07 | 21.25125 | 39.19323 | 6069 ft | 251 kts | 137° |
| 2026-05-05 08:07 | 21.24139 | 39.20800 | 5790 ft | 242 kts | 108° |
| 2026-05-05 08:08 | 21.23924 | 39.22545 | 5420 ft | 235 kts | 79° |
| 2026-05-05 08:08 | 21.24489 | 39.24143 | 5125 ft | 226 kts | 56° |
| 2026-05-05 08:08 | 21.25325 | 39.25515 | 5006 ft | 212 kts | 53° |
| 2026-05-05 08:08 | 21.26068 | 39.26808 | 4993 ft | 196 kts | 57° |
| 2026-05-05 08:09 | 21.26764 | 39.28056 | 4990 ft | 198 kts | 47° |
| 2026-05-05 08:09 | 21.27847 | 39.28882 | 4984 ft | 190 kts | 17° |
| 2026-05-05 08:09 | 21.29154 | 39.28958 | 4919 ft | 189 kts | 346° |
| 2026-05-05 08:09 | 21.30373 | 39.28446 | 4736 ft | 189 kts | 338° |
| 2026-05-05 08:10 | 21.31590 | 39.27905 | 4445 ft | 190 kts | 339° |
| 2026-05-05 08:10 | 21.32798 | 39.27404 | 4272 ft | 185 kts | 339° |
| 2026-05-05 08:10 | 21.34008 | 39.26916 | 4000 ft | 185 kts | 340° |
| 2026-05-05 08:10 | 21.35189 | 39.26450 | 3901 ft | 176 kts | 342° |
| 2026-05-05 08:11 | 21.36309 | 39.26014 | 3773 ft | 170 kts | 342° |
| 2026-05-05 08:11 | 21.37448 | 39.25584 | 3537 ft | 169 kts | 342° |
| 2026-05-05 08:11 | 21.38528 | 39.25164 | 3397 ft | 162 kts | 342° |
| 2026-05-05 08:11 | 21.39586 | 39.24756 | 3158 ft | 162 kts | 342° |
| 2026-05-05 08:12 | 21.40639 | 39.24358 | 3116 ft | 170 kts | 342° |
| 2026-05-05 08:12 | 21.41779 | 39.23918 | 3071 ft | 165 kts | 342° |
| 2026-05-05 08:12 | 21.42862 | 39.23488 | 3067 ft | 161 kts | 341° |
| 2026-05-05 08:12 | 21.43864 | 39.23087 | 3072 ft | 149 kts | 342° |
| 2026-05-05 08:13 | 21.44857 | 39.22693 | 3067 ft | 152 kts | 342° |
| 2026-05-05 08:13 | 21.45850 | 39.22302 | 3067 ft | 150 kts | 342° |
| 2026-05-05 08:13 | 21.46842 | 39.21915 | 3059 ft | 154 kts | 343° |
| 2026-05-05 08:13 | 21.47823 | 39.21551 | 2972 ft | 147 kts | 344° |
| 2026-05-05 08:14 | 21.48834 | 39.21168 | 2907 ft | 150 kts | 342° |
| 2026-05-05 08:14 | 21.49826 | 39.20778 | 2842 ft | 151 kts | 342° |
| 2026-05-05 08:14 | 21.50827 | 39.20379 | 2776 ft | 154 kts | 342° |
| 2026-05-05 08:14 | 21.51819 | 39.19986 | 2716 ft | 148 kts | 341° |
| 2026-05-05 08:15 | 21.52786 | 39.19606 | 2650 ft | 150 kts | 341° |
| 2026-05-05 08:15 | 21.53790 | 39.19211 | 2566 ft | 155 kts | 340° |
| 2026-05-05 08:15 | 21.54768 | 39.18822 | 2395 ft | 145 kts | 341° |
| 2026-05-05 08:15 | 21.55730 | 39.18440 | 2242 ft | 149 kts | 341° |
| 2026-05-05 08:16 | 21.56732 | 39.18044 | 2056 ft | 154 kts | 339° |
| 2026-05-05 08:16 | 21.57717 | 39.17656 | 1870 ft | 149 kts | 339° |
| 2026-05-05 08:16 | 21.58709 | 39.17262 | 1683 ft | 153 kts | 339° |
| 2026-05-05 08:16 | 21.59710 | 39.16867 | 1484 ft | 149 kts | 340° |
| 2026-05-05 08:17 | 21.60669 | 39.16485 | 1293 ft | 142 kts | 340° |
| 2026-05-05 08:17 | 21.61623 | 39.16109 | 1111 ft | 147 kts | 340° |
| 2026-05-05 08:17 | 21.62579 | 39.15734 | 939 ft | 146 kts | 338° |
| 2026-05-05 08:17 | 21.63515 | 39.15358 | 763 ft | 140 kts | 339° |
| 2026-05-05 08:18 | 21.64462 | 39.14984 | 592 ft | 151 kts | 341° |
| 2026-05-05 08:18 | 21.65443 | 39.14598 | 388 ft | 144 kts | 339° |
| 2026-05-05 08:18 | 21.66353 | 39.14235 | 217 ft | 143 kts | 338° |
| 2026-05-05 08:18 | 21.67272 | 39.13863 | 97 ft | 135 kts | 338° |
| 2026-05-05 08:19 | 21.68087 | 39.13538 | 37 ft | 103 kts | 340° |
| 2026-05-05 08:19 | 21.68569 | 39.13358 | 35 ft | 46 kts | 341° |
| 2026-05-05 08:19 | 21.68800 | 39.13270 | 33 ft | 33 kts | 340° |
| 2026-05-05 08:19 | 21.69009 | 39.13189 | 33 ft | 31 kts | 343° |
| 2026-05-05 08:20 | 21.69150 | 39.13192 | 32 ft | 11 kts | 13° |
| 2026-05-05 08:20 | 21.69233 | 39.13213 | 31 ft | 13 kts | 13° |
| 2026-05-05 08:20 | 21.69321 | 39.13245 | 32 ft | 14 kts | 26° |
| 2026-05-05 08:20 | 21.69376 | 39.13327 | 32 ft | 14 kts | 68° |
| 2026-05-05 08:21 | 21.69402 | 39.13401 | 32 ft | 9 kts | 69° |
| 2026-05-05 08:21 | 21.69446 | 39.13459 | 31 ft | 11 kts | 32° |
| 2026-05-05 08:21 | 21.69491 | 39.13457 | 31 ft | 1 kts | 348° |
| 2026-05-05 08:21 | 21.69524 | 39.13460 | 31 ft | 7 kts | 4° |
| 2026-05-05 08:22 | 21.69560 | 39.13498 | 31 ft | 7 kts | 58° |
| 2026-05-05 08:22 | 21.69572 | 39.13530 | 31 ft | 0 kts | 69° |